Terminal Aerodrome Forecast
Issued by NWS

Home | Current Version | Previous Version | Text Only | Print | Product List | Glossary On
Versions: 1 2 3 4 5 6 7 8 9 10 11 12 13 14 15 16 17 18 19 20 21 22 23 24 25
000
FTUS41 KBGM 190500
TAFRME
TAF
KRME 190521Z 1906/2006 31008KT P6SM SCT012 OVC020
      TEMPO 1906/1909 4SM -FZDZSN BR OVC012
     FM190900 29005KT P6SM BKN012 OVC020
     FM191500 29008KT P6SM OVC020
     FM192300 30006KT P6SM BKN015=

USA.gov is the U.S. government's official web portal to all federal, state and local government web resources and services.